Time;durP1;ratioP1;P1;durP2;ratioP2;P2;SDS_P1;SDS_P2;PMS_P1;PMS_P2;Temp;Humidity;BMP_temperature;BMP_pressure;BME280_temperature;BME280_humidity;BME280_pressure;Samples;Min_cycle;Max_cycle;Signal;HPM_P1;HPM_P2
2021/11/11 00:01:24;;;;;;;1.70;1.60;;;2.70;98.20;;;;;;4934861;28;20544;-75
2021/11/11 00:03:51;;;;;;;1.70;1.60;;;2.70;98.20;;;;;;4934868;29;20463;-75
2021/11/11 00:06:18;;;;;;;1.70;1.53;;;2.70;98.20;;;;;;4933152;29;20471;-75
2021/11/11 00:08:45;;;;;;;1.70;1.60;;;2.70;98.20;;;;;;4947866;29;20486;-75
2021/11/11 00:11:11;;;;;;;1.60;1.50;;;2.60;98.20;;;;;;4938416;28;20522;-74
2021/11/11 00:13:38;;;;;;;2.10;1.90;;;2.60;98.20;;;;;;4949024;29;20482;-75
2021/11/11 00:16:06;;;;;;;1.67;1.50;;;2.60;98.20;;;;;;4948894;28;20474;-75
2021/11/11 00:18:34;;;;;;;1.63;1.50;;;2.60;98.20;;;;;;4949324;29;20497;-75
2021/11/11 00:21:00;;;;;;;1.63;1.50;;;2.60;98.20;;;;;;4945895;29;20485;-75
2021/11/11 00:23:27;;;;;;;1.70;1.60;;;2.60;98.20;;;;;;4947895;29;21228;-75
2021/11/11 00:25:54;;;;;;;1.70;1.57;;;2.50;98.20;;;;;;4934066;29;20463;-75
2021/11/11 00:28:21;;;;;;;1.70;1.60;;;2.50;98.20;;;;;;4946926;28;21022;-74
2021/11/11 00:30:48;;;;;;;1.70;1.60;;;2.50;98.20;;;;;;4945248;28;20477;-75
2021/11/11 00:33:14;;;;;;;1.70;1.60;;;2.50;98.20;;;;;;4934292;28;20982;-75
2021/11/11 00:35:43;;;;;;;1.70;1.60;;;2.40;98.20;;;;;;4932772;29;20468;-75
2021/11/11 00:38:09;;;;;;;1.70;1.60;;;2.40;98.20;;;;;;4934216;29;20965;-74
2021/11/11 00:40:36;;;;;;;1.80;1.70;;;2.40;98.20;;;;;;4933491;29;20842;-74
2021/11/11 00:43:03;;;;;;;1.70;1.60;;;2.40;98.20;;;;;;4933954;29;20474;-75
2021/11/11 00:45:31;;;;;;;1.90;1.80;;;2.40;98.20;;;;;;4940205;28;20478;-76
2021/11/11 00:47:58;;;;;;;1.70;1.60;;;2.40;98.20;;;;;;4948257;29;20975;-75
2021/11/11 00:50:27;;;;;;;2.20;2.00;;;2.30;98.20;;;;;;4935825;29;20868;-74
2021/11/11 00:52:55;;;;;;;1.70;1.60;;;2.30;98.20;;;;;;4945702;29;20487;-74
2021/11/11 00:55:22;;;;;;;1.70;1.60;;;2.30;98.20;;;;;;4933899;29;20798;-74
2021/11/11 00:57:50;;;;;;;1.77;1.67;;;2.30;98.20;;;;;;4934257;29;20971;-74
2021/11/11 01:00:18;;;;;;;1.70;1.60;;;2.30;98.20;;;;;;4932547;29;20467;-75
2021/11/11 01:02:47;;;;;;;1.70;1.60;;;2.30;98.20;;;;;;4933631;29;20463;-74
2021/11/11 01:05:14;;;;;;;1.70;1.60;;;2.20;98.20;;;;;;4951730;29;20475;-75
2021/11/11 01:07:41;;;;;;;1.67;1.50;;;2.20;98.20;;;;;;4951232;29;20495;-74
2021/11/11 01:10:11;;;;;;;1.70;1.60;;;2.20;98.20;;;;;;4951770;29;20478;-75
2021/11/11 01:12:39;;;;;;;1.73;1.63;;;2.20;98.20;;;;;;4950857;28;20898;-74
2021/11/11 01:15:08;;;;;;;1.70;1.60;;;2.10;98.20;;;;;;4943764;28;20471;-75
2021/11/11 01:17:36;;;;;;;1.70;1.60;;;2.10;98.20;;;;;;4947073;28;20873;-75
2021/11/11 01:20:04;;;;;;;1.70;1.60;;;2.10;98.20;;;;;;4940630;29;20475;-73
2021/11/11 01:22:32;;;;;;;1.80;1.70;;;2.10;98.20;;;;;;4947515;29;20894;-76
2021/11/11 01:24:59;;;;;;;1.70;1.60;;;2.10;98.20;;;;;;4938261;28;20501;-75
2021/11/11 01:27:27;;;;;;;1.80;1.70;;;2.20;98.20;;;;;;4932678;29;20488;-74
2021/11/11 01:29:54;;;;;;;2.23;2.03;;;2.20;98.20;;;;;;4932329;29;20479;-75
2021/11/11 01:32:21;;;;;;;1.80;1.70;;;2.10;98.20;;;;;;4932661;29;21069;-76
2021/11/11 01:34:48;;;;;;;1.63;1.50;;;2.20;98.20;;;;;;4933086;29;20499;-74
2021/11/11 01:37:15;;;;;;;1.80;1.70;;;2.10;98.20;;;;;;4931499;29;20511;-73
2021/11/11 01:39:42;;;;;;;1.80;1.70;;;2.10;98.20;;;;;;4936632;29;20478;-75
2021/11/11 01:42:09;;;;;;;1.70;1.60;;;2.10;98.20;;;;;;4947234;28;20466;-75
2021/11/11 01:44:37;;;;;;;1.60;1.33;;;2.10;98.20;;;;;;4934047;29;20951;-75
2021/11/11 01:47:04;;;;;;;1.70;1.60;;;2.10;98.20;;;;;;4946400;29;20471;-75
2021/11/11 01:49:31;;;;;;;1.70;1.60;;;2.10;98.20;;;;;;4938284;28;20472;-74
2021/11/11 01:51:57;;;;;;;1.60;1.50;;;2.10;98.20;;;;;;4944748;28;20471;-74
2021/11/11 01:54:24;;;;;;;2.87;2.67;;;2.10;98.20;;;;;;4938335;29;20488;-75
2021/11/11 01:56:51;;;;;;;1.60;1.50;;;2.10;98.20;;;;;;4932028;29;20471;-74
2021/11/11 01:59:18;;;;;;;1.67;1.50;;;2.10;98.20;;;;;;4932013;29;20488;-75
2021/11/11 02:01:46;;;;;;;1.70;1.60;;;2.10;98.20;;;;;;4932147;29;20852;-74
2021/11/11 02:04:13;;;;;;;1.70;1.60;;;2.10;98.20;;;;;;4932092;29;20467;-75
2021/11/11 02:06:39;;;;;;;1.70;1.60;;;2.10;98.20;;;;;;4931537;29;20467;-75
2021/11/11 02:09:07;;;;;;;1.70;1.60;;;2.10;98.20;;;;;;4930971;29;20494;-74
2021/11/11 02:11:34;;;;;;;1.70;1.60;;;2.10;98.20;;;;;;4931792;29;20464;-75
2021/11/11 02:14:00;;;;;;;1.70;1.60;;;2.10;98.20;;;;;;4935914;29;20491;-74
2021/11/11 02:16:27;;;;;;;1.80;1.70;;;2.10;98.20;;;;;;4944769;28;20472;-73
2021/11/11 02:18:56;;;;;;;1.70;1.60;;;2.10;98.20;;;;;;4944898;29;21232;-77
2021/11/11 02:21:24;;;;;;;1.70;1.60;;;2.10;98.20;;;;;;4938185;29;20474;-75
2021/11/11 02:23:51;;;;;;;1.63;1.50;;;2.00;98.20;;;;;;4942414;29;20460;-74
2021/11/11 02:26:19;;;;;;;1.70;1.60;;;2.00;98.20;;;;;;4931860;29;20470;-75
2021/11/11 02:28:46;;;;;;;1.80;1.70;;;2.00;98.20;;;;;;4932084;29;20496;-75
2021/11/11 02:31:13;;;;;;;1.70;1.60;;;1.90;98.20;;;;;;4931523;29;20475;-76
2021/11/11 02:33:40;;;;;;;1.80;1.70;;;1.90;98.20;;;;;;4932068;29;20491;-75
2021/11/11 02:36:07;;;;;;;1.80;1.70;;;1.90;98.20;;;;;;4931506;29;20467;-75
2021/11/11 02:38:35;;;;;;;1.70;1.60;;;1.90;98.20;;;;;;4941003;28;21001;-76
2021/11/11 02:41:02;;;;;;;1.70;1.60;;;1.80;98.20;;;;;;4939336;28;20464;-74
2021/11/11 02:43:29;;;;;;;1.80;1.70;;;1.80;98.20;;;;;;4932381;29;20472;-73
2021/11/11 02:45:56;;;;;;;1.70;1.60;;;1.80;98.20;;;;;;4940696;28;20470;-74
2021/11/11 02:48:24;;;;;;;1.60;1.50;;;1.80;98.20;;;;;;4945924;29;20479;-73
2021/11/11 02:50:53;;;;;;;1.70;1.60;;;1.80;98.20;;;;;;4929851;28;20475;-73
2021/11/11 02:53:20;;;;;;;4.30;4.03;;;1.80;98.20;;;;;;4949226;28;20493;-75
2021/11/11 02:55:49;;;;;;;1.80;1.70;;;1.80;98.20;;;;;;4945928;28;20969;-74
2021/11/11 02:58:17;;;;;;;1.70;1.60;;;1.80;98.20;;;;;;4933384;29;20579;-74
2021/11/11 03:00:51;;;;;;;1.70;1.60;;;1.80;98.20;;;;;;4930217;29;20552;-75
2021/11/11 03:03:18;;;;;;;1.70;1.60;;;1.80;98.20;;;;;;4931936;29;20538;-74
2021/11/11 03:05:45;;;;;;;1.80;1.70;;;1.80;98.20;;;;;;4930285;29;20467;-74
2021/11/11 03:08:13;;;;;;;1.63;1.50;;;1.70;98.20;;;;;;4930840;29;20491;-76
2021/11/11 03:10:41;;;;;;;1.70;1.60;;;1.70;98.20;;;;;;4929376;29;20471;-74
2021/11/11 03:13:10;;;;;;;1.70;1.60;;;1.70;98.20;;;;;;4931861;29;20874;-76
2021/11/11 03:15:38;;;;;;;1.67;1.50;;;1.70;98.20;;;;;;4936184;28;20464;-74
2021/11/11 03:18:05;;;;;;;1.63;1.50;;;1.70;98.20;;;;;;4946093;29;20488;-76
2021/11/11 03:20:33;;;;;;;1.70;1.60;;;1.70;98.20;;;;;;4935697;29;20502;-75
2021/11/11 03:23:01;;;;;;;1.63;1.50;;;1.70;98.20;;;;;;4946288;29;20952;-75
2021/11/11 03:25:30;;;;;;;1.80;1.70;;;1.70;98.20;;;;;;4941938;28;20478;-75
2021/11/11 03:27:57;;;;;;;1.60;1.50;;;1.70;98.20;;;;;;4932972;29;20492;-75
2021/11/11 03:30:27;;;;;;;1.70;1.60;;;1.70;98.20;;;;;;4934136;28;20467;-74
2021/11/11 03:32:55;;;;;;;1.80;1.70;;;1.70;98.20;;;;;;4948470;28;20463;-74
2021/11/11 03:35:22;;;;;;;1.80;1.70;;;1.80;98.20;;;;;;4943859;29;20490;-75
2021/11/11 03:37:51;;;;;;;1.80;1.70;;;1.80;98.20;;;;;;4935380;29;20491;-75
2021/11/11 03:40:21;;;;;;;1.70;1.60;;;1.80;98.20;;;;;;4934234;29;20518;-75
2021/11/11 03:42:49;;;;;;;1.67;1.57;;;1.80;98.20;;;;;;4934492;29;20471;-74
2021/11/11 03:45:17;;;;;;;1.70;1.60;;;1.80;98.20;;;;;;4947361;29;20877;-75
2021/11/11 03:47:46;;;;;;;1.70;1.60;;;1.80;98.20;;;;;;4946235;29;20862;-75
2021/11/11 03:50:14;;;;;;;1.63;1.53;;;1.80;98.20;;;;;;4942934;29;20478;-74
2021/11/11 03:52:41;;;;;;;1.70;1.60;;;1.80;98.20;;;;;;4947007;29;20467;-75
2021/11/11 03:55:11;;;;;;;1.70;1.60;;;1.90;98.20;;;;;;4940789;29;20522;-74
2021/11/11 03:57:39;;;;;;;1.70;1.60;;;1.90;98.20;;;;;;4934436;29;20499;-75
2021/11/11 04:00:08;;;;;;;1.70;1.50;;;1.90;98.20;;;;;;4933548;29;20471;-75
2021/11/11 04:02:34;;;;;;;1.77;1.67;;;1.90;98.20;;;;;;4952014;29;20479;-75
2021/11/11 04:05:03;;;;;;;1.90;1.80;;;1.80;98.20;;;;;;4952359;29;20953;-75
2021/11/11 04:07:30;;;;;;;1.70;1.60;;;1.80;98.20;;;;;;4951472;29;20582;-73
2021/11/11 04:09:58;;;;;;;1.67;1.50;;;1.80;98.20;;;;;;4952029;29;20475;-75
2021/11/11 04:12:24;;;;;;;1.70;1.60;;;1.80;98.20;;;;;;4934117;29;21120;-73
2021/11/11 04:14:51;;;;;;;1.60;1.50;;;1.80;98.20;;;;;;4938569;29;20875;-74
2021/11/11 04:17:18;;;;;;;3.70;3.50;;;1.80;98.20;;;;;;4947510;28;20467;-75
2021/11/11 04:19:45;;;;;;;1.63;1.53;;;1.80;98.20;;;;;;4940582;29;20482;-75
2021/11/11 04:22:14;;;;;;;1.70;1.60;;;1.70;98.20;;;;;;4948953;28;20466;-74
2021/11/11 04:24:41;;;;;;;1.80;1.70;;;1.70;98.20;;;;;;4941706;29;20498;-75
2021/11/11 04:27:13;;;;;;;1.70;1.60;;;1.70;98.20;;;;;;4933632;29;20475;-75
2021/11/11 04:29:44;;;;;;;1.70;1.60;;;1.60;98.20;;;;;;4936908;29;20463;-74
2021/11/11 04:32:13;;;;;;;1.70;1.60;;;1.50;98.20;;;;;;4934051;28;20471;-75
2021/11/11 04:34:41;;;;;;;1.80;1.70;;;1.50;98.20;;;;;;4932141;29;20495;-75
2021/11/11 04:37:21;;;;;;;1.60;1.50;;;1.40;98.20;;;;;;4950291;29;20459;-75
2021/11/11 04:48:33;;;;;;;1.73;1.63;;;1.40;98.20;;;;;;4933231;28;20482;-74
2021/11/11 05:02:09;;;;;;;1.60;1.50;;;1.40;98.20;;;;;;4941853;29;20534;-74
2021/11/11 05:04:36;;;;;;;1.80;1.70;;;1.40;98.20;;;;;;4932758;29;20494;-74
2021/11/11 05:07:03;;;;;;;1.70;1.60;;;1.40;98.20;;;;;;4931947;29;20468;-74
2021/11/11 05:09:30;;;;;;;1.80;1.70;;;1.40;98.20;;;;;;4932172;29;20472;-75
2021/11/11 05:11:58;;;;;;;1.70;1.60;;;1.40;98.20;;;;;;4932547;29;20471;-74
2021/11/11 05:14:25;;;;;;;1.83;1.73;;;1.40;98.20;;;;;;4932291;29;21049;-75
2021/11/11 05:16:52;;;;;;;1.80;1.70;;;1.40;98.20;;;;;;4944616;28;20473;-74
2021/11/11 05:19:18;;;;;;;1.70;1.60;;;1.30;98.20;;;;;;4936444;29;20491;-75
2021/11/11 05:21:45;;;;;;;1.80;1.70;;;1.30;98.20;;;;;;4942683;29;20462;-75
2021/11/11 05:24:12;;;;;;;1.70;1.60;;;1.30;98.20;;;;;;4947766;28;20490;-75
2021/11/11 05:26:40;;;;;;;1.70;1.60;;;1.30;98.20;;;;;;4932239;29;20474;-75
2021/11/11 05:29:10;;;;;;;2.00;1.90;;;1.30;98.20;;;;;;4931680;29;20527;-75
2021/11/11 05:31:37;;;;;;;1.80;1.70;;;1.20;98.20;;;;;;4932284;29;20471;-74
2021/11/11 05:34:04;;;;;;;2.37;2.20;;;1.20;98.20;;;;;;4944768;28;20509;-73
2021/11/11 05:36:31;;;;;;;1.80;1.70;;;1.20;98.20;;;;;;4940346;29;20471;-74
2021/11/11 05:38:58;;;;;;;1.70;1.60;;;1.20;98.20;;;;;;4944805;29;20521;-74
2021/11/11 05:41:25;;;;;;;1.80;1.70;;;1.20;98.20;;;;;;4943094;29;20470;-75
2021/11/11 05:43:52;;;;;;;1.70;1.60;;;1.20;98.20;;;;;;4933729;29;20478;-74
2021/11/11 05:46:20;;;;;;;1.90;1.80;;;1.20;98.20;;;;;;4943969;28;20455;-75
2021/11/11 05:48:50;;;;;;;1.70;1.60;;;1.20;98.20;;;;;;4942416;29;21196;-76
2021/11/11 05:51:17;;;;;;;2.30;2.10;;;1.30;98.20;;;;;;4939764;28;20486;-75
2021/11/11 05:53:43;;;;;;;1.80;1.70;;;1.30;98.20;;;;;;4944926;28;20462;-75
2021/11/11 05:56:10;;;;;;;1.83;1.73;;;1.30;98.20;;;;;;4930790;29;20471;-74
2021/11/11 05:58:37;;;;;;;1.80;1.70;;;1.30;98.20;;;;;;4931333;29;20495;-76
2021/11/11 06:01:04;;;;;;;1.70;1.60;;;1.30;98.20;;;;;;4930277;29;20475;-75
2021/11/11 06:03:32;;;;;;;1.80;1.70;;;1.30;98.20;;;;;;4931247;29;20506;-74
2021/11/11 06:05:59;;;;;;;1.80;1.70;;;1.30;98.20;;;;;;4930367;29;20499;-75
2021/11/11 06:08:26;;;;;;;1.70;1.60;;;1.30;98.20;;;;;;4937514;29;20491;-75
2021/11/11 06:10:53;;;;;;;1.70;1.60;;;1.30;98.20;;;;;;4947508;28;20471;-76
2021/11/11 06:13:21;;;;;;;1.70;1.60;;;1.30;98.20;;;;;;4945988;28;20478;-73
2021/11/11 06:15:47;;;;;;;1.80;1.70;;;1.30;98.20;;;;;;4944841;28;20494;-74
2021/11/11 06:18:15;;;;;;;1.90;1.80;;;1.20;98.20;;;;;;4944818;28;20913;-74
2021/11/11 06:20:48;;;;;;;1.80;1.70;;;1.20;98.20;;;;;;4941345;28;20482;-74
2021/11/11 06:23:15;;;;;;;1.70;1.60;;;1.20;98.20;;;;;;4944121;28;20467;-75
2021/11/11 06:25:43;;;;;;;1.70;1.60;;;1.20;98.20;;;;;;4942258;29;20833;-74
2021/11/11 06:28:09;;;;;;;1.80;1.70;;;1.20;98.20;;;;;;4935047;28;21032;-74
2021/11/11 06:30:37;;;;;;;1.70;1.60;;;1.30;98.20;;;;;;4929898;29;20468;-75
2021/11/11 06:33:04;;;;;;;1.70;1.60;;;1.30;98.20;;;;;;4931211;29;21145;-74
2021/11/11 06:35:32;;;;;;;1.80;1.70;;;1.30;98.20;;;;;;4940055;28;20513;-75
2021/11/11 06:38:02;;;;;;;1.70;1.60;;;1.30;98.20;;;;;;4952891;28;20482;-73
2021/11/11 06:40:30;;;;;;;1.90;1.80;;;1.30;98.20;;;;;;4947227;28;20473;-72
2021/11/11 06:42:58;;;;;;;1.63;1.53;;;1.30;98.20;;;;;;4948089;28;20462;-73
2021/11/11 06:45:25;;;;;;;1.80;1.70;;;1.30;98.20;;;;;;4952247;28;20467;-72
2021/11/11 06:47:52;;;;;;;1.70;1.60;;;1.30;98.20;;;;;;4947332;28;20486;-73
2021/11/11 06:50:19;;;;;;;1.70;1.60;;;1.40;98.20;;;;;;4944188;28;20470;-73
2021/11/11 06:52:46;;;;;;;1.70;1.60;;;1.40;98.20;;;;;;4945598;28;20459;-74
2021/11/11 06:55:14;;;;;;;1.70;1.60;;;1.40;98.20;;;;;;4935028;28;20519;-73
2021/11/11 06:57:41;;;;;;;1.70;1.60;;;1.40;98.20;;;;;;4935357;28;20497;-73
2021/11/11 07:00:10;;;;;;;1.90;1.80;;;1.40;98.20;;;;;;4947637;28;20466;-73
2021/11/11 07:02:37;;;;;;;1.70;1.60;;;1.40;98.20;;;;;;4947501;28;20470;-73
2021/11/11 07:05:05;;;;;;;1.83;1.73;;;1.40;98.20;;;;;;4932716;28;20475;-74
2021/11/11 07:07:32;;;;;;;1.80;1.70;;;1.40;98.20;;;;;;4936955;28;21186;-73
2021/11/11 07:09:59;;;;;;;1.70;1.60;;;1.40;98.20;;;;;;4938884;28;21175;-73
2021/11/11 07:12:27;;;;;;;1.83;1.73;;;1.50;98.20;;;;;;4944778;28;20495;-73
2021/11/11 07:14:55;;;;;;;1.70;1.60;;;1.40;98.20;;;;;;4942403;28;20865;-73
2021/11/11 07:17:21;;;;;;;1.80;1.70;;;1.50;98.20;;;;;;4939459;28;20510;-73
2021/11/11 07:19:48;;;;;;;1.67;1.50;;;1.50;98.20;;;;;;4942317;28;20586;-72
2021/11/11 07:22:15;;;;;;;1.70;1.60;;;1.50;98.20;;;;;;4942872;28;20657;-72
2021/11/11 07:24:43;;;;;;;1.70;1.60;;;1.50;98.20;;;;;;4942497;28;21017;-72
2021/11/11 07:27:09;;;;;;;1.80;1.70;;;1.50;98.20;;;;;;4942319;28;20477;-72
2021/11/11 07:29:38;;;;;;;1.70;1.60;;;1.60;98.20;;;;;;4943255;28;21041;-72
2021/11/11 07:32:07;;;;;;;1.70;1.60;;;1.60;98.20;;;;;;4943191;28;20470;-73
2021/11/11 07:34:45;;;;;;;1.63;1.50;;;1.70;98.20;;;;;;4944963;28;22468;-74
2021/11/11 07:37:11;;;;;;;1.70;1.60;;;1.70;98.20;;;;;;4942278;28;20474;-74
2021/11/11 07:39:38;;;;;;;1.60;1.50;;;1.70;98.20;;;;;;4940207;28;21349;-74
2021/11/11 07:42:05;;;;;;;1.70;1.60;;;1.70;98.20;;;;;;4929677;28;20530;-74
2021/11/11 07:44:32;;;;;;;1.73;1.63;;;1.70;98.20;;;;;;4936824;28;20471;-73
2021/11/11 07:47:00;;;;;;;1.70;1.60;;;1.70;98.20;;;;;;4939152;28;20994;-73
2021/11/11 07:49:27;;;;;;;1.70;1.60;;;1.70;98.20;;;;;;4937822;28;20494;-73
2021/11/11 07:51:55;;;;;;;1.70;1.60;;;1.70;98.20;;;;;;4941565;28;20761;-74
2021/11/11 07:54:21;;;;;;;1.70;1.60;;;1.60;98.20;;;;;;4940252;28;20537;-73
2021/11/11 07:56:48;;;;;;;1.63;1.50;;;1.70;98.20;;;;;;4941244;28;21036;-74
2021/11/11 07:59:15;;;;;;;1.60;1.50;;;1.70;98.20;;;;;;4941065;28;20510;-72
2021/11/11 08:01:42;;;;;;;1.70;1.60;;;1.70;98.20;;;;;;4938656;28;20989;-72
2021/11/11 08:04:11;;;;;;;1.70;1.60;;;1.70;98.20;;;;;;4941356;28;20531;-74
2021/11/11 08:06:37;;;;;;;1.60;1.50;;;1.70;98.20;;;;;;4938527;28;20815;-74
2021/11/11 08:09:04;;;;;;;1.70;1.53;;;1.60;98.20;;;;;;4935058;28;20581;-74
2021/11/11 08:11:31;;;;;;;1.73;1.63;;;1.70;98.20;;;;;;4930394;28;20482;-74
2021/11/11 08:14:02;;;;;;;1.60;1.50;;;1.70;98.20;;;;;;4943161;28;20516;-72
2021/11/11 08:16:29;;;;;;;1.70;1.60;;;1.70;98.20;;;;;;4939586;28;21327;-73
2021/11/11 08:18:57;;;;;;;1.70;1.60;;;1.80;98.20;;;;;;4937809;28;20581;-74
2021/11/11 08:21:25;;;;;;;1.70;1.60;;;1.70;98.20;;;;;;4940051;28;20528;-72
2021/11/11 08:23:52;;;;;;;1.60;1.50;;;1.80;98.20;;;;;;4942969;28;20465;-73
2021/11/11 08:26:19;;;;;;;1.67;1.57;;;1.90;98.20;;;;;;4941358;28;21038;-72
2021/11/11 08:28:46;;;;;;;1.60;1.50;;;1.90;98.20;;;;;;4938406;28;20501;-72
2021/11/11 08:31:13;;;;;;;1.63;1.50;;;2.00;98.20;;;;;;4942505;28;21008;-73
2021/11/11 08:33:40;;;;;;;1.70;1.60;;;2.10;98.20;;;;;;4944510;28;20570;-75
2021/11/11 08:36:07;;;;;;;1.67;1.57;;;2.20;98.20;;;;;;4943755;28;20491;-74
2021/11/11 08:38:36;;;;;;;1.70;1.60;;;2.20;98.20;;;;;;4941141;28;20501;-73
2021/11/11 08:41:03;;;;;;;1.60;1.47;;;2.30;98.20;;;;;;4944231;28;20501;-74
2021/11/11 08:43:30;;;;;;;1.60;1.50;;;2.30;98.20;;;;;;4942800;28;20981;-73
2021/11/11 08:45:57;;;;;;;1.63;1.50;;;2.40;98.20;;;;;;4943136;28;20479;-73
2021/11/11 08:48:25;;;;;;;1.63;1.50;;;2.40;98.20;;;;;;4940391;28;21242;-73
2021/11/11 08:50:54;;;;;;;1.67;1.50;;;2.50;98.20;;;;;;4940124;28;20485;-72
2021/11/11 08:53:21;;;;;;;1.60;1.50;;;2.50;98.20;;;;;;4943694;28;20466;-73
2021/11/11 08:55:50;;;;;;;1.70;1.60;;;2.50;98.20;;;;;;4943126;28;20514;-72
2021/11/11 08:58:17;;;;;;;1.70;1.60;;;2.60;98.20;;;;;;4939458;28;20530;-72
2021/11/11 09:00:49;;;;;;;3.33;3.03;;;2.60;98.20;;;;;;4937421;28;20506;-73
2021/11/11 09:03:17;;;;;;;1.70;1.57;;;2.70;98.20;;;;;;4936649;28;20485;-72
2021/11/11 09:05:45;;;;;;;1.60;1.50;;;2.70;98.20;;;;;;4937584;28;20890;-72
2021/11/11 09:08:14;;;;;;;2.97;2.77;;;2.80;98.20;;;;;;4940712;28;20503;-72
2021/11/11 09:10:43;;;;;;;1.60;1.50;;;2.90;98.20;;;;;;4938846;28;20540;-73
2021/11/11 09:13:11;;;;;;;1.60;1.40;;;2.90;98.20;;;;;;4940048;28;20478;-72
2021/11/11 09:15:41;;;;;;;1.70;1.60;;;3.00;98.20;;;;;;4933315;28;20506;-75
2021/11/11 09:18:08;;;;;;;1.67;1.50;;;3.10;98.20;;;;;;4937573;28;20487;-74
2021/11/11 09:20:38;;;;;;;1.70;1.50;;;3.10;98.20;;;;;;4932852;28;20478;-72
2021/11/11 09:23:06;;;;;;;1.63;1.50;;;3.20;98.20;;;;;;4941238;28;20466;-74
2021/11/11 09:25:33;;;;;;;1.60;1.40;;;3.30;98.20;;;;;;4940210;28;20473;-76
2021/11/11 09:28:01;;;;;;;1.63;1.50;;;3.30;98.20;;;;;;4942636;28;20530;-74
2021/11/11 09:30:33;;;;;;;1.67;1.57;;;3.40;98.20;;;;;;4941622;28;20470;-74
2021/11/11 09:33:23;;;;;;;1.67;1.50;;;3.40;98.20;;;;;;4943283;28;20457;-73
2021/11/11 09:35:53;;;;;;;1.70;1.50;;;3.40;98.20;;;;;;4941538;28;20681;-75
2021/11/11 09:38:21;;;;;;;1.60;1.50;;;3.50;98.20;;;;;;4945222;28;20487;-73
2021/11/11 09:40:51;;;;;;;1.70;1.60;;;3.60;98.20;;;;;;4945050;28;20470;-72
2021/11/11 09:43:18;;;;;;;1.63;1.50;;;3.60;98.20;;;;;;4942990;28;20598;-73
2021/11/11 09:45:53;;;;;;;1.67;1.40;;;3.70;98.20;;;;;;4944218;28;20471;-74
2021/11/11 09:48:21;;;;;;;1.60;1.40;;;3.80;98.20;;;;;;4943382;28;20497;-74
2021/11/11 09:51:01;;;;;;;1.67;1.43;;;3.90;98.20;;;;;;4944046;28;20471;-74
2021/11/11 09:53:33;;;;;;;1.63;1.50;;;3.90;98.20;;;;;;4941896;28;20471;-75
2021/11/11 09:58:51;;;;;;;1.70;1.50;;;4.10;98.20;;;;;;4948824;28;20477;-74
2021/11/11 10:01:29;;;;;;;1.70;1.40;;;4.10;98.20;;;;;;4944629;28;20888;-73
2021/11/11 10:06:28;;;;;;;1.63;1.50;;;4.20;98.20;;;;;;4954346;28;20497;-72
2021/11/11 10:08:58;;;;;;;1.60;1.40;;;4.10;98.20;;;;;;4954477;28;20489;-73
2021/11/11 10:11:32;;;;;;;1.63;1.40;;;4.10;98.20;;;;;;4954731;28;20473;-73
2021/11/11 10:14:01;;;;;;;1.60;1.40;;;4.00;98.20;;;;;;4954622;28;20498;-72
2021/11/11 10:16:31;;;;;;;1.60;1.40;;;4.10;98.20;;;;;;4954452;28;20497;-72
2021/11/11 10:18:59;;;;;;;1.60;1.50;;;4.10;98.20;;;;;;4953977;28;20490;-72
2021/11/11 10:21:39;;;;;;;2.03;1.83;;;4.20;98.20;;;;;;4955790;28;20477;-72
2021/11/11 10:24:21;;;;;;;1.60;1.30;;;4.20;98.20;;;;;;4955838;28;20473;-72
2021/11/11 10:26:56;;;;;;;1.60;1.40;;;4.20;98.20;;;;;;4954163;28;20469;-72
2021/11/11 10:29:29;;;;;;;1.67;1.40;;;4.30;98.20;;;;;;4954892;28;20485;-72
2021/11/11 10:32:02;;;;;;;1.67;1.40;;;4.40;98.20;;;;;;4955410;28;20472;-72
2021/11/11 10:34:29;;;;;;;1.63;1.40;;;4.30;98.20;;;;;;4954825;28;20476;-73
2021/11/11 10:36:58;;;;;;;1.70;1.50;;;4.20;98.20;;;;;;4955025;28;20493;-73
2021/11/11 10:39:28;;;;;;;1.63;1.40;;;4.20;98.20;;;;;;4954686;28;21015;-73
2021/11/11 10:41:56;;;;;;;1.67;1.40;;;4.20;98.20;;;;;;4955733;28;20478;-73
2021/11/11 10:44:27;;;;;;;2.33;2.13;;;4.30;98.20;;;;;;4956021;28;20946;-73
2021/11/11 10:46:57;;;;;;;1.67;1.40;;;4.40;98.20;;;;;;4955328;28;20564;-73
2021/11/11 10:49:30;;;;;;;1.70;1.50;;;4.50;98.20;;;;;;4949064;28;20518;-73
2021/11/11 10:52:20;;;;;;;1.63;1.47;;;4.60;98.20;;;;;;4954046;28;20473;-73
2021/11/11 10:55:06;;;;;;;1.60;1.40;;;4.70;98.20;;;;;;4956454;28;20466;-73
2021/11/11 10:57:39;;;;;;;1.67;1.40;;;4.80;98.20;;;;;;4955470;28;21019;-74
2021/11/11 11:00:11;;;;;;;1.60;1.40;;;4.80;98.20;;;;;;4954818;28;20869;-74
2021/11/11 11:02:54;;;;;;;1.60;1.37;;;4.90;98.20;;;;;;4953278;28;20575;-74
2021/11/11 11:05:25;;;;;;;1.63;1.30;;;5.00;98.20;;;;;;4954699;28;20479;-74
2021/11/11 11:08:00;;;;;;;1.70;1.40;;;5.00;98.20;;;;;;4956452;28;20529;-71
2021/11/11 11:10:28;;;;;;;2.47;2.27;;;5.00;98.20;;;;;;4955024;28;20473;-72
2021/11/11 11:12:56;;;;;;;1.70;1.60;;;5.10;98.20;;;;;;4944602;28;20482;-72
2021/11/11 11:15:49;;;;;;;1.60;1.40;;;5.10;98.20;;;;;;4951288;28;20477;-72
2021/11/11 11:18:18;;;;;;;1.60;1.40;;;5.20;98.20;;;;;;4931196;28;20494;-72
2021/11/11 11:20:47;;;;;;;1.63;1.30;;;5.20;98.20;;;;;;4941911;28;20476;-72
2021/11/11 11:23:20;;;;;;;1.60;1.33;;;5.40;98.20;;;;;;4953361;28;20476;-74
2021/11/11 11:25:57;;;;;;;1.93;1.83;;;5.40;98.20;;;;;;4946229;28;20469;-72
2021/11/11 11:28:26;;;;;;;1.67;1.37;;;5.40;98.20;;;;;;4941663;28;20491;-72
2021/11/11 11:30:54;;;;;;;1.60;1.40;;;5.50;98.20;;;;;;4937957;28;20469;-72
2021/11/11 11:33:30;;;;;;;1.70;1.30;;;5.50;98.20;;;;;;4940886;28;21116;-72
2021/11/11 11:35:59;;;;;;;1.67;1.30;;;5.60;98.20;;;;;;4949299;28;20485;-72
2021/11/11 11:38:28;;;;;;;1.63;1.37;;;5.60;98.20;;;;;;4954248;28;21295;-72
2021/11/11 11:40:55;;;;;;;1.60;1.30;;;5.60;98.20;;;;;;4949235;28;20691;-72
2021/11/11 11:43:29;;;;;;;2.13;1.93;;;5.60;98.20;;;;;;4947844;28;20477;-72
2021/11/11 11:46:15;;;;;;;1.60;1.30;;;5.60;98.20;;;;;;4941025;28;20843;-72
2021/11/11 11:48:42;;;;;;;1.60;1.30;;;5.50;98.20;;;;;;4951968;28;20596;-72
2021/11/11 11:51:11;;;;;;;1.60;1.30;;;5.60;98.20;;;;;;4951163;28;20465;-72
2021/11/11 11:53:45;;;;;;;1.63;1.40;;;5.70;98.20;;;;;;4953936;28;20880;-72
2021/11/11 11:56:18;;;;;;;1.60;1.40;;;5.70;98.20;;;;;;4953524;28;20490;-73
2021/11/11 11:58:50;;;;;;;1.60;1.30;;;5.70;98.20;;;;;;4956525;28;21104;-72
2021/11/11 12:06:57;;;;;;;1.60;1.30;;;6.00;98.20;;;;;;5293896;23;21142;-72
2021/11/11 12:09:30;;;;;;;1.60;1.30;;;6.10;98.20;;;;;;4951644;28;20653;-72
2021/11/11 12:12:23;;;;;;;3.53;3.23;;;6.20;98.20;;;;;;4960119;28;20486;-73
2021/11/11 12:15:10;;;;;;;2.07;1.87;;;6.30;98.20;;;;;;4959458;28;20559;-72
2021/11/11 12:17:51;;;;;;;1.60;1.30;;;6.30;98.20;;;;;;4932141;28;20499;-73
2021/11/11 12:40:17;;;;;;;1.60;1.30;;;6.80;98.20;;;;;;4902759;28;20458;-73
2021/11/11 12:42:53;;;;;;;1.70;1.60;;;6.90;98.20;;;;;;4941332;28;20992;-73
2021/11/11 12:45:22;;;;;;;1.60;1.30;;;6.90;98.20;;;;;;4939436;28;21045;-72
2021/11/11 12:47:51;;;;;;;1.60;1.20;;;6.90;98.20;;;;;;4932969;28;20475;-73
2021/11/11 12:50:31;;;;;;;1.60;1.30;;;7.00;98.20;;;;;;4937949;28;21082;-73
2021/11/11 12:53:42;;;;;;;1.60;1.30;;;7.10;98.20;;;;;;4937699;28;20474;-72
2021/11/11 12:56:28;;;;;;;1.60;1.30;;;7.20;98.20;;;;;;4925152;28;20502;-73
2021/11/11 12:59:08;;;;;;;1.60;1.30;;;7.40;98.20;;;;;;4939465;28;20537;-73
2021/11/11 13:01:38;;;;;;;1.70;1.30;;;7.60;98.20;;;;;;4935551;28;20756;-72
2021/11/11 13:04:14;;;;;;;1.60;1.30;;;7.70;98.20;;;;;;4937905;28;20910;-72
2021/11/11 13:06:44;;;;;;;1.63;1.30;;;7.90;98.20;;;;;;4928550;28;21017;-73
2021/11/11 13:09:23;;;;;;;1.70;1.60;;;8.00;98.20;;;;;;4935346;28;20473;-73
2021/11/11 13:11:54;;;;;;;1.60;1.30;;;8.10;98.20;;;;;;4937850;28;20483;-74
2021/11/11 13:14:30;;;;;;;1.60;1.20;;;8.10;98.20;;;;;;4937764;28;20812;-74
2021/11/11 13:17:15;;;;;;;1.60;1.20;;;8.10;98.20;;;;;;4934857;28;20999;-74
2021/11/11 13:19:45;;;;;;;1.70;1.30;;;8.20;98.20;;;;;;4939390;28;20473;-74
2021/11/11 13:22:18;;;;;;;1.60;1.30;;;8.20;98.20;;;;;;4939362;28;20475;-75
2021/11/11 13:24:57;;;;;;;1.60;1.20;;;8.20;98.20;;;;;;4934935;28;20471;-74
2021/11/11 13:59:34;;;;;;;1.60;1.30;;;8.60;98.20;;;;;;4943324;28;20960;-74
2021/11/11 14:27:36;;;;;;;1.60;1.20;;;8.50;98.20;;;;;;4928544;28;20481;-74
2021/11/11 15:17:09;;;;;;;1.60;1.20;;;8.70;98.20;;;;;;4920142;28;20494;-74
2021/11/11 16:22:01;;;;;;;1.60;1.30;;;8.40;98.20;;;;;;4941275;28;20605;-74
2021/11/11 16:24:32;;;;;;;1.60;1.20;;;8.30;98.20;;;;;;4942371;28;20479;-73
2021/11/11 16:27:01;;;;;;;1.60;1.20;;;8.30;98.20;;;;;;4939015;28;20486;-73
2021/11/11 16:29:28;;;;;;;1.60;1.40;;;8.30;98.20;;;;;;4940860;28;20900;-74
2021/11/11 16:31:57;;;;;;;2.13;1.93;;;8.30;98.20;;;;;;4943107;28;21351;-74
2021/11/11 16:34:27;;;;;;;1.60;1.20;;;8.30;98.20;;;;;;4940512;28;20682;-73
2021/11/11 16:36:55;;;;;;;1.60;1.13;;;8.30;98.20;;;;;;4940434;28;20505;-73
2021/11/11 16:39:23;;;;;;;1.60;1.20;;;8.30;98.20;;;;;;4940852;28;20486;-73
2021/11/11 16:41:53;;;;;;;1.60;1.20;;;8.30;98.20;;;;;;4940786;28;20502;-74
2021/11/11 16:44:22;;;;;;;1.60;1.20;;;8.30;98.20;;;;;;4940257;28;20474;-76
2021/11/11 16:46:54;;;;;;;1.60;1.20;;;8.30;98.20;;;;;;4943113;28;20549;-76